sensor_id;sensor_type;location;lat;lon;timestamp;temperature;humidity
19248;DHT22;9758;48.640;8.148;2023-05-07T01:06:41;18.40;47.90
19248;DHT22;9758;48.640;8.148;2023-05-07T01:09:49;18.30;47.90
19248;DHT22;9758;48.640;8.148;2023-05-07T01:12:37;18.30;47.90
19248;DHT22;9758;48.640;8.148;2023-05-07T01:15:25;18.20;47.90
19248;DHT22;9758;48.640;8.148;2023-05-07T01:18:16;18.30;47.90
19248;DHT22;9758;48.640;8.148;2023-05-07T01:21:19;18.20;48.00
19248;DHT22;9758;48.640;8.148;2023-05-07T01:24:14;18.20;48.00
19248;DHT22;9758;48.640;8.148;2023-05-07T01:27:23;18.20;48.10
19248;DHT22;9758;48.640;8.148;2023-05-07T01:30:14;18.20;48.20
19248;DHT22;9758;48.640;8.148;2023-05-07T01:33:08;18.20;48.10
19248;DHT22;9758;48.640;8.148;2023-05-07T01:36:23;18.20;48.10
19248;DHT22;9758;48.640;8.148;2023-05-07T01:56:19;18.20;48.30
19248;DHT22;9758;48.640;8.148;2023-05-07T01:58:50;18.10;48.40
19248;DHT22;9758;48.640;8.148;2023-05-07T02:01:52;18.10;48.30
19248;DHT22;9758;48.640;8.148;2023-05-07T02:04:39;18.10;48.30
19248;DHT22;9758;48.640;8.148;2023-05-07T02:11:47;18.00;48.30
19248;DHT22;9758;48.640;8.148;2023-05-07T02:14:35;18.00;48.50
19248;DHT22;9758;48.640;8.148;2023-05-07T02:17:57;18.10;48.40
19248;DHT22;9758;48.640;8.148;2023-05-07T02:20:41;18.00;48.40
19248;DHT22;9758;48.640;8.148;2023-05-07T02:23:28;18.00;48.40
19248;DHT22;9758;48.640;8.148;2023-05-07T02:32:41;18.00;48.60
19248;DHT22;9758;48.640;8.148;2023-05-07T02:35:31;18.00;48.60
19248;DHT22;9758;48.640;8.148;2023-05-07T02:38:16;18.00;48.60
19248;DHT22;9758;48.640;8.148;2023-05-07T02:41:01;17.90;48.60
19248;DHT22;9758;48.640;8.148;2023-05-07T02:43:50;17.90;48.60
19248;DHT22;9758;48.640;8.148;2023-05-07T02:47:13;17.90;48.60
19248;DHT22;9758;48.640;8.148;2023-05-07T02:53:20;17.90;48.70
19248;DHT22;9758;48.640;8.148;2023-05-07T02:56:10;17.90;48.60
19248;DHT22;9758;48.640;8.148;2023-05-07T03:02:18;17.90;48.70
19248;DHT22;9758;48.640;8.148;2023-05-07T03:05:04;17.80;48.80
19248;DHT22;9758;48.640;8.148;2023-05-07T03:07:52;17.80;48.70
19248;DHT22;9758;48.640;8.148;2023-05-07T03:11:08;17.90;48.80
19248;DHT22;9758;48.640;8.148;2023-05-07T03:14:14;17.80;48.80
19248;DHT22;9758;48.640;8.148;2023-05-07T03:16:58;17.80;48.70
19248;DHT22;9758;48.640;8.148;2023-05-07T03:19:42;17.80;48.70
19248;DHT22;9758;48.640;8.148;2023-05-07T03:22:36;17.80;48.80
19248;DHT22;9758;48.640;8.148;2023-05-07T03:25:57;17.80;48.80
19248;DHT22;9758;48.640;8.148;2023-05-07T03:29:05;17.80;48.90
19248;DHT22;9758;48.640;8.148;2023-05-07T03:32:07;17.80;48.90
19248;DHT22;9758;48.640;8.148;2023-05-07T03:35:02;17.70;48.90
19248;DHT22;9758;48.640;8.148;2023-05-07T03:38:07;17.70;48.90
19248;DHT22;9758;48.640;8.148;2023-05-07T03:41:09;17.70;49.00
19248;DHT22;9758;48.640;8.148;2023-05-07T03:44:06;17.70;49.10
19248;DHT22;9758;48.640;8.148;2023-05-07T03:46:53;17.70;49.10
19248;DHT22;9758;48.640;8.148;2023-05-07T03:49:30;17.60;49.10
19248;DHT22;9758;48.640;8.148;2023-05-07T03:52:18;17.60;49.10
19248;DHT22;9758;48.640;8.148;2023-05-07T03:55:03;17.60;49.20
19248;DHT22;9758;48.640;8.148;2023-05-07T04:01:02;17.70;49.30
19248;DHT22;9758;48.640;8.148;2023-05-07T04:03:51;17.60;49.20
19248;DHT22;9758;48.640;8.148;2023-05-07T04:06:45;17.60;49.20
19248;DHT22;9758;48.640;8.148;2023-05-07T04:09:36;17.60;49.20
19248;DHT22;9758;48.640;8.148;2023-05-07T04:12:20;17.60;49.30
19248;DHT22;9758;48.640;8.148;2023-05-07T04:15:19;17.60;49.30
19248;DHT22;9758;48.640;8.148;2023-05-07T04:28:10;17.70;49.40
19248;DHT22;9758;48.640;8.148;2023-05-07T04:31:05;17.70;49.30
19248;DHT22;9758;48.640;8.148;2023-05-07T04:33:52;17.70;49.30
19248;DHT22;9758;48.640;8.148;2023-05-07T04:36:53;17.70;49.30
19248;DHT22;9758;48.640;8.148;2023-05-07T04:40:05;17.70;49.30
19248;DHT22;9758;48.640;8.148;2023-05-07T04:49:38;17.80;49.50
19248;DHT22;9758;48.640;8.148;2023-05-07T04:52:40;17.80;49.50
19248;DHT22;9758;48.640;8.148;2023-05-07T04:55:29;17.80;49.40
19248;DHT22;9758;48.640;8.148;2023-05-07T04:58:28;17.80;49.40
19248;DHT22;9758;48.640;8.148;2023-05-07T05:01:28;17.90;49.50
19248;DHT22;9758;48.640;8.148;2023-05-07T05:07:47;17.90;49.40
19248;DHT22;9758;48.640;8.148;2023-05-07T05:10:35;17.90;49.50
19248;DHT22;9758;48.640;8.148;2023-05-07T05:13:26;17.90;49.40
19248;DHT22;9758;48.640;8.148;2023-05-07T05:16:17;18.00;49.40
19248;DHT22;9758;48.640;8.148;2023-05-07T05:19:04;18.00;49.40
19248;DHT22;9758;48.640;8.148;2023-05-07T05:22:11;17.90;49.40
19248;DHT22;9758;48.640;8.148;2023-05-07T05:52:08;18.00;49.90
19248;DHT22;9758;48.640;8.148;2023-05-07T05:55:33;18.00;49.90
19248;DHT22;9758;48.640;8.148;2023-05-07T05:59:06;18.10;49.90
19248;DHT22;9758;48.640;8.148;2023-05-07T06:02:01;18.20;49.90
19248;DHT22;9758;48.640;8.148;2023-05-07T06:18:10;18.40;50.00
19248;DHT22;9758;48.640;8.148;2023-05-07T06:21:04;18.30;49.90
19248;DHT22;9758;48.640;8.148;2023-05-07T06:24:11;18.30;50.00
19248;DHT22;9758;48.640;8.148;2023-05-07T06:27:02;18.30;50.10
19248;DHT22;9758;48.640;8.148;2023-05-07T06:29:47;18.30;50.30
19248;DHT22;9758;48.640;8.148;2023-05-07T06:32:57;18.30;50.20
19248;DHT22;9758;48.640;8.148;2023-05-07T07:32:13;19.60;50.10
19248;DHT22;9758;48.640;8.148;2023-05-07T07:35:09;19.60;50.10
19248;DHT22;9758;48.640;8.148;2023-05-07T07:44:41;19.90;50.00
19248;DHT22;9758;48.640;8.148;2023-05-07T07:47:33;20.00;49.90
19248;DHT22;9758;48.640;8.148;2023-05-07T07:53:58;20.20;49.90
19248;DHT22;9758;48.640;8.148;2023-05-07T08:00:55;20.20;50.00
19248;DHT22;9758;48.640;8.148;2023-05-07T08:40:29;21.70;48.90
19248;DHT22;9758;48.640;8.148;2023-05-07T08:43:16;21.70;49.00
19248;DHT22;9758;48.640;8.148;2023-05-07T08:46:01;21.70;49.00
19248;DHT22;9758;48.640;8.148;2023-05-07T08:49:09;21.70;49.00
19248;DHT22;9758;48.640;8.148;2023-05-07T08:52:17;21.80;49.00
19248;DHT22;9758;48.640;8.148;2023-05-07T08:55:17;21.90;49.10
19248;DHT22;9758;48.640;8.148;2023-05-07T08:57:46;22.00;49.00
19248;DHT22;9758;48.640;8.148;2023-05-07T09:00:31;22.00;48.90
19248;DHT22;9758;48.640;8.148;2023-05-07T09:03:22;22.10;48.90
19248;DHT22;9758;48.640;8.148;2023-05-07T09:06:22;22.10;48.80
19248;DHT22;9758;48.640;8.148;2023-05-07T09:09:02;22.10;48.80
19248;DHT22;9758;48.640;8.148;2023-05-07T09:15:28;22.20;48.70
19248;DHT22;9758;48.640;8.148;2023-05-07T09:18:06;22.30;48.70
19248;DHT22;9758;48.640;8.148;2023-05-07T09:20:58;22.40;48.80
19248;DHT22;9758;48.640;8.148;2023-05-07T09:23:55;22.50;48.70
19248;DHT22;9758;48.640;8.148;2023-05-07T09:26:38;22.60;48.60
19248;DHT22;9758;48.640;8.148;2023-05-07T09:29:20;22.70;48.50
19248;DHT22;9758;48.640;8.148;2023-05-07T09:41:50;23.20;48.00
19248;DHT22;9758;48.640;8.148;2023-05-07T09:44:43;23.20;47.90
19248;DHT22;9758;48.640;8.148;2023-05-07T09:47:35;23.20;47.80
19248;DHT22;9758;48.640;8.148;2023-05-07T09:50:53;23.20;48.00
19248;DHT22;9758;48.640;8.148;2023-05-07T10:00:46;23.20;48.00
19248;DHT22;9758;48.640;8.148;2023-05-07T10:03:33;23.20;48.00
19248;DHT22;9758;48.640;8.148;2023-05-07T10:06:43;23.30;48.00
19248;DHT22;9758;48.640;8.148;2023-05-07T10:09:50;23.40;47.90
19248;DHT22;9758;48.640;8.148;2023-05-07T10:12:51;23.50;47.90
19248;DHT22;9758;48.640;8.148;2023-05-07T11:33:57;25.30;46.60
19248;DHT22;9758;48.640;8.148;2023-05-07T11:36:24;25.40;46.40
19248;DHT22;9758;48.640;8.148;2023-05-07T11:38:53;25.50;46.40
19248;DHT22;9758;48.640;8.148;2023-05-07T11:41:21;25.60;46.30
19248;DHT22;9758;48.640;8.148;2023-05-07T11:43:59;25.60;46.30
19248;DHT22;9758;48.640;8.148;2023-05-07T11:46:27;25.60;46.40
19248;DHT22;9758;48.640;8.148;2023-05-07T11:49:12;25.70;46.40
19248;DHT22;9758;48.640;8.148;2023-05-07T11:51:39;25.80;46.10
19248;DHT22;9758;48.640;8.148;2023-05-07T11:54:08;25.90;46.10
19248;DHT22;9758;48.640;8.148;2023-05-07T11:56:52;25.90;45.70
19248;DHT22;9758;48.640;8.148;2023-05-07T11:59:39;25.80;45.60
19248;DHT22;9758;48.640;8.148;2023-05-07T12:02:07;25.70;46.00
19248;DHT22;9758;48.640;8.148;2023-05-07T12:04:39;25.60;46.20
19248;DHT22;9758;48.640;8.148;2023-05-07T12:07:11;25.60;46.10
19248;DHT22;9758;48.640;8.148;2023-05-07T12:09:39;25.70;46.10
19248;DHT22;9758;48.640;8.148;2023-05-07T12:12:06;25.70;46.00
19248;DHT22;9758;48.640;8.148;2023-05-07T12:14:54;25.70;45.90
19248;DHT22;9758;48.640;8.148;2023-05-07T12:17:35;25.60;45.80
19248;DHT22;9758;48.640;8.148;2023-05-07T12:20:29;25.60;45.50
19248;DHT22;9758;48.640;8.148;2023-05-07T12:23:12;25.50;45.80
19248;DHT22;9758;48.640;8.148;2023-05-07T12:25:48;25.50;45.80
19248;DHT22;9758;48.640;8.148;2023-05-07T12:28:23;25.50;46.00
19248;DHT22;9758;48.640;8.148;2023-05-07T12:31:06;25.50;45.80
19248;DHT22;9758;48.640;8.148;2023-05-07T12:33:46;25.40;45.90
19248;DHT22;9758;48.640;8.148;2023-05-07T12:36:36;25.50;46.00
19248;DHT22;9758;48.640;8.148;2023-05-07T12:39:22;25.50;45.70
19248;DHT22;9758;48.640;8.148;2023-05-07T12:42:04;25.40;45.60
19248;DHT22;9758;48.640;8.148;2023-05-07T12:44:46;25.40;45.90
19248;DHT22;9758;48.640;8.148;2023-05-07T12:47:29;25.40;46.00
19248;DHT22;9758;48.640;8.148;2023-05-07T12:50:41;25.40;45.80
19248;DHT22;9758;48.640;8.148;2023-05-07T12:53:28;25.50;46.00
19248;DHT22;9758;48.640;8.148;2023-05-07T12:56:00;25.60;45.90
19248;DHT22;9758;48.640;8.148;2023-05-07T12:58:49;25.70;45.90
19248;DHT22;9758;48.640;8.148;2023-05-07T13:01:35;25.80;45.50
19248;DHT22;9758;48.640;8.148;2023-05-07T13:04:24;25.80;45.30
19248;DHT22;9758;48.640;8.148;2023-05-07T13:07:13;25.60;45.40
19248;DHT22;9758;48.640;8.148;2023-05-07T13:09:44;25.50;45.40
19248;DHT22;9758;48.640;8.148;2023-05-07T13:12:13;25.40;45.70
19248;DHT22;9758;48.640;8.148;2023-05-07T13:14:40;25.40;45.80
19248;DHT22;9758;48.640;8.148;2023-05-07T13:17:07;25.50;46.40
19248;DHT22;9758;48.640;8.148;2023-05-07T13:19:37;25.40;45.60
19248;DHT22;9758;48.640;8.148;2023-05-07T13:22:04;25.40;45.60
19248;DHT22;9758;48.640;8.148;2023-05-07T13:24:33;25.40;45.50
19248;DHT22;9758;48.640;8.148;2023-05-07T13:30:27;25.40;45.50
19248;DHT22;9758;48.640;8.148;2023-05-07T13:32:58;25.40;45.20
19248;DHT22;9758;48.640;8.148;2023-05-07T13:35:57;25.40;45.50
19248;DHT22;9758;48.640;8.148;2023-05-07T13:38:37;25.50;45.50
19248;DHT22;9758;48.640;8.148;2023-05-07T13:41:20;25.50;45.30
19248;DHT22;9758;48.640;8.148;2023-05-07T13:43:53;25.50;45.40
19248;DHT22;9758;48.640;8.148;2023-05-07T13:46:47;25.50;45.40
19248;DHT22;9758;48.640;8.148;2023-05-07T13:54:33;25.80;45.30
19248;DHT22;9758;48.640;8.148;2023-05-07T13:57:01;25.80;45.20
19248;DHT22;9758;48.640;8.148;2023-05-07T13:59:29;25.90;45.10
19248;DHT22;9758;48.640;8.148;2023-05-07T14:02:10;26.00;45.00
19248;DHT22;9758;48.640;8.148;2023-05-07T14:04:38;26.00;44.90
19248;DHT22;9758;48.640;8.148;2023-05-07T14:07:06;26.00;45.00
19248;DHT22;9758;48.640;8.148;2023-05-07T14:09:37;26.10;45.10
19248;DHT22;9758;48.640;8.148;2023-05-07T14:12:05;26.10;44.80
19248;DHT22;9758;48.640;8.148;2023-05-07T14:14:33;25.90;44.80
19248;DHT22;9758;48.640;8.148;2023-05-07T14:17:05;25.80;44.90
19248;DHT22;9758;48.640;8.148;2023-05-07T14:19:49;25.80;45.00
19248;DHT22;9758;48.640;8.148;2023-05-07T14:22:48;25.70;45.00
19248;DHT22;9758;48.640;8.148;2023-05-07T14:25:43;25.70;45.00
19248;DHT22;9758;48.640;8.148;2023-05-07T14:28:19;25.60;44.80
19248;DHT22;9758;48.640;8.148;2023-05-07T14:31:05;25.40;44.90
19248;DHT22;9758;48.640;8.148;2023-05-07T14:33:55;25.30;45.00
19248;DHT22;9758;48.640;8.148;2023-05-07T14:36:38;25.10;45.10
19248;DHT22;9758;48.640;8.148;2023-05-07T14:39:23;25.10;45.20
19248;DHT22;9758;48.640;8.148;2023-05-07T14:42:12;25.00;45.40
19248;DHT22;9758;48.640;8.148;2023-05-07T14:45:09;24.90;45.40
19248;DHT22;9758;48.640;8.148;2023-05-07T14:48:13;24.80;45.50
19248;DHT22;9758;48.640;8.148;2023-05-07T14:50:59;24.60;45.80
19248;DHT22;9758;48.640;8.148;2023-05-07T14:53:47;24.50;46.00
19248;DHT22;9758;48.640;8.148;2023-05-07T14:56:31;24.40;46.20
19248;DHT22;9758;48.640;8.148;2023-05-07T14:59:16;24.40;46.20
19248;DHT22;9758;48.640;8.148;2023-05-07T15:02:13;24.40;46.30
19248;DHT22;9758;48.640;8.148;2023-05-07T15:05:14;24.40;46.40
19248;DHT22;9758;48.640;8.148;2023-05-07T15:17:44;24.10;46.50
19248;DHT22;9758;48.640;8.148;2023-05-07T15:20:40;24.00;46.60
19248;DHT22;9758;48.640;8.148;2023-05-07T15:23:32;23.80;46.60
19248;DHT22;9758;48.640;8.148;2023-05-07T15:26:24;23.70;46.70
19248;DHT22;9758;48.640;8.148;2023-05-07T15:29:22;23.60;46.80
19248;DHT22;9758;48.640;8.148;2023-05-07T15:31:50;23.50;47.20
19248;DHT22;9758;48.640;8.148;2023-05-07T15:34:20;23.30;46.90
19248;DHT22;9758;48.640;8.148;2023-05-07T15:36:47;23.00;47.00
19248;DHT22;9758;48.640;8.148;2023-05-07T15:39:15;22.70;47.20
19248;DHT22;9758;48.640;8.148;2023-05-07T15:41:42;22.50;47.40
19248;DHT22;9758;48.640;8.148;2023-05-07T15:44:11;22.30;47.50
19248;DHT22;9758;48.640;8.148;2023-05-07T15:46:42;22.10;47.60
19248;DHT22;9758;48.640;8.148;2023-05-07T15:49:11;21.90;47.60
19248;DHT22;9758;48.640;8.148;2023-05-07T15:51:42;21.70;47.70
19248;DHT22;9758;48.640;8.148;2023-05-07T15:54:09;21.50;47.80
19248;DHT22;9758;48.640;8.148;2023-05-07T15:56:37;21.30;47.90
19248;DHT22;9758;48.640;8.148;2023-05-07T15:59:06;21.20;48.00
19248;DHT22;9758;48.640;8.148;2023-05-07T16:01:35;21.10;48.10
19248;DHT22;9758;48.640;8.148;2023-05-07T16:04:07;21.00;48.20
19248;DHT22;9758;48.640;8.148;2023-05-07T16:06:34;20.80;48.20
19248;DHT22;9758;48.640;8.148;2023-05-07T16:25:25;20.60;48.60
19248;DHT22;9758;48.640;8.148;2023-05-07T16:27:52;19.90;49.00
19248;DHT22;9758;48.640;8.148;2023-05-07T16:30:20;19.80;49.10
19248;DHT22;9758;48.640;8.148;2023-05-07T16:32:48;19.70;49.20
19248;DHT22;9758;48.640;8.148;2023-05-07T16:35:16;19.70;49.40
19248;DHT22;9758;48.640;8.148;2023-05-07T16:37:45;19.60;49.30
19248;DHT22;9758;48.640;8.148;2023-05-07T16:40:13;19.60;49.40
19248;DHT22;9758;48.640;8.148;2023-05-07T16:42:42;19.50;49.40
19248;DHT22;9758;48.640;8.148;2023-05-07T16:45:14;19.50;49.50
19248;DHT22;9758;48.640;8.148;2023-05-07T16:47:43;19.50;49.60
19248;DHT22;9758;48.640;8.148;2023-05-07T16:50:10;19.60;49.60
19248;DHT22;9758;48.640;8.148;2023-05-07T16:52:37;19.60;49.60
19248;DHT22;9758;48.640;8.148;2023-05-07T16:55:05;19.60;49.60
19248;DHT22;9758;48.640;8.148;2023-05-07T16:57:35;19.60;49.60
19248;DHT22;9758;48.640;8.148;2023-05-07T17:00:11;19.60;49.60
19248;DHT22;9758;48.640;8.148;2023-05-07T17:02:56;19.70;49.80
19248;DHT22;9758;48.640;8.148;2023-05-07T17:05:24;19.70;49.70
19248;DHT22;9758;48.640;8.148;2023-05-07T17:07:51;19.80;49.70
19248;DHT22;9758;48.640;8.148;2023-05-07T17:10:32;19.80;49.80
19248;DHT22;9758;48.640;8.148;2023-05-07T17:12:59;19.90;49.70
19248;DHT22;9758;48.640;8.148;2023-05-07T17:15:45;19.90;49.80
19248;DHT22;9758;48.640;8.148;2023-05-07T17:18:14;19.90;49.80
19248;DHT22;9758;48.640;8.148;2023-05-07T17:20:42;20.00;49.70
19248;DHT22;9758;48.640;8.148;2023-05-07T17:23:09;20.00;49.70
19248;DHT22;9758;48.640;8.148;2023-05-07T17:25:36;20.00;49.70
19248;DHT22;9758;48.640;8.148;2023-05-07T17:28:03;20.00;49.70
19248;DHT22;9758;48.640;8.148;2023-05-07T17:30:35;20.00;49.70
19248;DHT22;9758;48.640;8.148;2023-05-07T17:33:06;20.00;49.70
19248;DHT22;9758;48.640;8.148;2023-05-07T17:35:33;20.00;49.80
19248;DHT22;9758;48.640;8.148;2023-05-07T17:38:01;20.00;49.70
19248;DHT22;9758;48.640;8.148;2023-05-07T17:40:29;20.00;49.80
19248;DHT22;9758;48.640;8.148;2023-05-07T17:42:56;20.00;49.80
19248;DHT22;9758;48.640;8.148;2023-05-07T17:45:23;20.00;49.80
19248;DHT22;9758;48.640;8.148;2023-05-07T17:47:50;20.00;49.90
19248;DHT22;9758;48.640;8.148;2023-05-07T17:50:19;19.90;49.90
19248;DHT22;9758;48.640;8.148;2023-05-07T17:52:46;20.00;49.90
19248;DHT22;9758;48.640;8.148;2023-05-07T17:55:13;19.90;49.90
19248;DHT22;9758;48.640;8.148;2023-05-07T17:57:40;20.00;50.00
19248;DHT22;9758;48.640;8.148;2023-05-07T18:00:07;20.00;50.00
19248;DHT22;9758;48.640;8.148;2023-05-07T18:02:35;19.90;50.00
19248;DHT22;9758;48.640;8.148;2023-05-07T18:05:03;19.90;50.10
19248;DHT22;9758;48.640;8.148;2023-05-07T18:07:32;19.90;50.10
19248;DHT22;9758;48.640;8.148;2023-05-07T18:09:59;19.90;50.10
19248;DHT22;9758;48.640;8.148;2023-05-07T18:12:27;19.90;50.20
19248;DHT22;9758;48.640;8.148;2023-05-07T18:14:54;19.90;50.20
19248;DHT22;9758;48.640;8.148;2023-05-07T18:17:22;19.90;50.30
19248;DHT22;9758;48.640;8.148;2023-05-07T18:19:50;19.90;50.30
19248;DHT22;9758;48.640;8.148;2023-05-07T18:22:19;19.80;50.30
19248;DHT22;9758;48.640;8.148;2023-05-07T18:24:48;19.80;50.30
19248;DHT22;9758;48.640;8.148;2023-05-07T18:27:16;19.80;50.30
19248;DHT22;9758;48.640;8.148;2023-05-07T18:29:43;19.80;50.40
19248;DHT22;9758;48.640;8.148;2023-05-07T18:32:10;19.80;50.50
19248;DHT22;9758;48.640;8.148;2023-05-07T18:34:38;19.70;50.40
19248;DHT22;9758;48.640;8.148;2023-05-07T18:37:05;19.70;50.50
19248;DHT22;9758;48.640;8.148;2023-05-07T18:39:40;19.60;50.50
19248;DHT22;9758;48.640;8.148;2023-05-07T18:42:17;19.60;50.60
19248;DHT22;9758;48.640;8.148;2023-05-07T18:44:46;19.60;50.50
19248;DHT22;9758;48.640;8.148;2023-05-07T18:47:15;19.60;50.60
19248;DHT22;9758;48.640;8.148;2023-05-07T18:49:42;19.50;50.60
19248;DHT22;9758;48.640;8.148;2023-05-07T18:52:11;19.50;50.70
19248;DHT22;9758;48.640;8.148;2023-05-07T18:54:40;19.50;50.70
19248;DHT22;9758;48.640;8.148;2023-05-07T18:57:09;19.40;50.80
19248;DHT22;9758;48.640;8.148;2023-05-07T18:59:37;19.40;51.40
19248;DHT22;9758;48.640;8.148;2023-05-07T19:02:05;19.40;50.90
19248;DHT22;9758;48.640;8.148;2023-05-07T19:04:32;19.30;50.80
19248;DHT22;9758;48.640;8.148;2023-05-07T19:06:59;19.30;50.90
19248;DHT22;9758;48.640;8.148;2023-05-07T19:09:25;19.30;50.90
19248;DHT22;9758;48.640;8.148;2023-05-07T19:11:54;19.30;50.90
19248;DHT22;9758;48.640;8.148;2023-05-07T19:14:21;19.20;50.90
19248;DHT22;9758;48.640;8.148;2023-05-07T19:16:53;19.20;51.00
19248;DHT22;9758;48.640;8.148;2023-05-07T19:19:25;19.20;51.00
19248;DHT22;9758;48.640;8.148;2023-05-07T19:21:53;19.20;51.10
19248;DHT22;9758;48.640;8.148;2023-05-07T19:24:20;19.20;51.10
19248;DHT22;9758;48.640;8.148;2023-05-07T19:26:48;19.10;51.10
19248;DHT22;9758;48.640;8.148;2023-05-07T19:29:20;19.10;51.20
19248;DHT22;9758;48.640;8.148;2023-05-07T19:31:48;19.10;51.10
19248;DHT22;9758;48.640;8.148;2023-05-07T19:34:21;19.00;51.20
19248;DHT22;9758;48.640;8.148;2023-05-07T19:36:48;19.00;51.20
19248;DHT22;9758;48.640;8.148;2023-05-07T19:39:16;19.00;51.20
19248;DHT22;9758;48.640;8.148;2023-05-07T19:41:43;19.00;51.40
19248;DHT22;9758;48.640;8.148;2023-05-07T19:44:12;18.90;51.30
19248;DHT22;9758;48.640;8.148;2023-05-07T19:46:43;18.90;51.40
19248;DHT22;9758;48.640;8.148;2023-05-07T19:49:13;18.80;51.40
19248;DHT22;9758;48.640;8.148;2023-05-07T19:51:56;18.80;51.40
19248;DHT22;9758;48.640;8.148;2023-05-07T19:54:25;18.80;51.40
19248;DHT22;9758;48.640;8.148;2023-05-07T19:56:56;18.80;51.40
19248;DHT22;9758;48.640;8.148;2023-05-07T19:59:26;18.70;51.50
19248;DHT22;9758;48.640;8.148;2023-05-07T20:01:58;18.70;51.50
19248;DHT22;9758;48.640;8.148;2023-05-07T20:04:27;18.70;51.50
19248;DHT22;9758;48.640;8.148;2023-05-07T20:07:06;18.70;51.60
19248;DHT22;9758;48.640;8.148;2023-05-07T20:09:39;18.60;51.60
19248;DHT22;9758;48.640;8.148;2023-05-07T20:12:25;18.60;51.60
19248;DHT22;9758;48.640;8.148;2023-05-07T20:14:57;18.60;51.60
19248;DHT22;9758;48.640;8.148;2023-05-07T20:17:24;18.60;51.60
19248;DHT22;9758;48.640;8.148;2023-05-07T20:19:54;18.60;51.70
19248;DHT22;9758;48.640;8.148;2023-05-07T20:22:29;18.60;51.80
19248;DHT22;9758;48.640;8.148;2023-05-07T20:24:56;18.60;51.80
19248;DHT22;9758;48.640;8.148;2023-05-07T20:27:29;18.60;51.80
19248;DHT22;9758;48.640;8.148;2023-05-07T20:30:12;18.60;51.90
19248;DHT22;9758;48.640;8.148;2023-05-07T20:32:40;18.60;51.80
19248;DHT22;9758;48.640;8.148;2023-05-07T20:35:08;18.50;51.80
19248;DHT22;9758;48.640;8.148;2023-05-07T20:37:37;18.50;51.80
19248;DHT22;9758;48.640;8.148;2023-05-07T20:40:06;18.50;51.90
19248;DHT22;9758;48.640;8.148;2023-05-07T20:42:33;18.60;51.90
19248;DHT22;9758;48.640;8.148;2023-05-07T20:45:01;18.60;51.90
19248;DHT22;9758;48.640;8.148;2023-05-07T20:47:30;18.60;51.90
19248;DHT22;9758;48.640;8.148;2023-05-07T20:49:58;18.60;51.90
19248;DHT22;9758;48.640;8.148;2023-05-07T20:52:34;18.60;51.90
19248;DHT22;9758;48.640;8.148;2023-05-07T20:58:26;18.60;52.10
19248;DHT22;9758;48.640;8.148;2023-05-07T21:01:10;18.60;51.90
19248;DHT22;9758;48.640;8.148;2023-05-07T21:03:53;18.60;52.00
19248;DHT22;9758;48.640;8.148;2023-05-07T21:06:22;18.60;52.00
19248;DHT22;9758;48.640;8.148;2023-05-07T21:09:10;18.60;52.00
19248;DHT22;9758;48.640;8.148;2023-05-07T21:11:54;18.60;52.10
19248;DHT22;9758;48.640;8.148;2023-05-07T21:14:36;18.60;52.00
19248;DHT22;9758;48.640;8.148;2023-05-07T21:17:16;18.60;52.00
19248;DHT22;9758;48.640;8.148;2023-05-07T21:20:10;18.60;52.10
19248;DHT22;9758;48.640;8.148;2023-05-07T21:22:44;18.60;52.20
19248;DHT22;9758;48.640;8.148;2023-05-07T21:25:16;18.60;52.10
19248;DHT22;9758;48.640;8.148;2023-05-07T21:27:50;18.60;52.10
19248;DHT22;9758;48.640;8.148;2023-05-07T21:31:12;18.60;52.10
19248;DHT22;9758;48.640;8.148;2023-05-07T21:34:22;18.60;52.20
19248;DHT22;9758;48.640;8.148;2023-05-07T21:37:05;18.60;52.10
19248;DHT22;9758;48.640;8.148;2023-05-07T21:39:56;18.60;52.10
19248;DHT22;9758;48.640;8.148;2023-05-07T21:42:52;18.60;52.10
19248;DHT22;9758;48.640;8.148;2023-05-07T21:45:34;18.50;52.10
19248;DHT22;9758;48.640;8.148;2023-05-07T21:51:37;18.50;52.90
19248;DHT22;9758;48.640;8.148;2023-05-07T21:54:21;18.50;52.20
19248;DHT22;9758;48.640;8.148;2023-05-07T21:57:02;18.50;52.20
19248;DHT22;9758;48.640;8.148;2023-05-07T22:00:05;18.40;52.20
19248;DHT22;9758;48.640;8.148;2023-05-07T22:02:47;18.40;52.30
19248;DHT22;9758;48.640;8.148;2023-05-07T22:05:32;18.40;52.30
19248;DHT22;9758;48.640;8.148;2023-05-07T22:08:32;18.40;52.30
19248;DHT22;9758;48.640;8.148;2023-05-07T22:11:29;18.40;52.50
19248;DHT22;9758;48.640;8.148;2023-05-07T22:14:24;18.40;52.40
19248;DHT22;9758;48.640;8.148;2023-05-07T22:17:07;18.40;52.40
19248;DHT22;9758;48.640;8.148;2023-05-07T22:20:10;18.40;52.40
19248;DHT22;9758;48.640;8.148;2023-05-07T22:22:57;18.40;52.80
19248;DHT22;9758;48.640;8.148;2023-05-07T22:29:14;18.40;52.50
19248;DHT22;9758;48.640;8.148;2023-05-07T22:32:06;18.40;52.60
19248;DHT22;9758;48.640;8.148;2023-05-07T22:34:57;18.40;52.60
19248;DHT22;9758;48.640;8.148;2023-05-07T22:37:41;18.40;52.50
19248;DHT22;9758;48.640;8.148;2023-05-07T22:40:13;18.40;52.60
19248;DHT22;9758;48.640;8.148;2023-05-07T22:43:03;18.40;52.50
19248;DHT22;9758;48.640;8.148;2023-05-07T22:46:26;18.50;52.60
19248;DHT22;9758;48.640;8.148;2023-05-07T22:49:32;18.50;52.60
19248;DHT22;9758;48.640;8.148;2023-05-07T22:52:15;18.50;52.50
19248;DHT22;9758;48.640;8.148;2023-05-07T22:55:02;18.50;52.40
19248;DHT22;9758;48.640;8.148;2023-05-07T22:57:56;18.50;52.50
19248;DHT22;9758;48.640;8.148;2023-05-07T23:14:07;18.60;52.70
19248;DHT22;9758;48.640;8.148;2023-05-07T23:17:22;18.50;52.70
19248;DHT22;9758;48.640;8.148;2023-05-07T23:20:12;18.50;52.60
19248;DHT22;9758;48.640;8.148;2023-05-07T23:23:05;18.60;52.70
19248;DHT22;9758;48.640;8.148;2023-05-07T23:32:38;18.50;52.80
19248;DHT22;9758;48.640;8.148;2023-05-07T23:35:21;18.50;52.70
19248;DHT22;9758;48.640;8.148;2023-05-07T23:38:04;18.50;52.70
19248;DHT22;9758;48.640;8.148;2023-05-07T23:40:50;18.50;52.70
19248;DHT22;9758;48.640;8.148;2023-05-07T23:43:56;18.50;52.80
19248;DHT22;9758;48.640;8.148;2023-05-07T23:47:10;18.50;52.90
